Time;durP1;ratioP1;P1;durP2;ratioP2;P2;SDS_P1;SDS_P2;PMS_P1;PMS_P2;Temp;Humidity;BMP_temperature;BMP_pressure;BME280_temperature;BME280_humidity;BME280_pressure;Samples;Min_cycle;Max_cycle;Signal;HPM_P1;HPM_P2
2022/10/22 00:00:00;;;;;;;;;;;19.30;93.80;;;;;;5135520;27;20022;-44
2022/10/22 00:02:26;;;;;;;;;;;19.30;93.80;;;;;;5135773;27;19998;-46
2022/10/22 00:04:52;;;;;;;;;;;19.30;93.80;;;;;;5135705;27;19908;-42
2022/10/22 00:07:18;;;;;;;;;;;19.30;93.80;;;;;;5135683;27;19919;-45
2022/10/22 00:09:44;;;;;;;;;;;19.30;93.80;;;;;;5135315;27;20404;-42
2022/10/22 00:12:10;;;;;;;;;;;19.30;93.80;;;;;;5135273;27;19998;-42
2022/10/22 00:14:36;;;;;;;;;;;19.30;93.80;;;;;;5135439;27;19941;-43
2022/10/22 00:17:01;;;;;;;;;;;19.30;93.80;;;;;;5135529;27;20354;-42
2022/10/22 00:19:27;;;;;;;;;;;19.30;93.80;;;;;;5135357;27;19915;-45
2022/10/22 00:21:53;;;;;;;;;;;19.30;93.80;;;;;;5135354;27;19908;-44
2022/10/22 00:24:18;;;;;;;;;;;19.30;93.80;;;;;;5135117;27;20002;-44
2022/10/22 00:26:44;;;;;;;;;;;19.30;93.80;;;;;;5135165;27;19949;-43
2022/10/22 00:29:09;;;;;;;;;;;19.30;93.80;;;;;;5135233;27;19907;-43
2022/10/22 00:31:35;;;;;;;;;;;19.30;93.80;;;;;;5133675;27;20002;-43
2022/10/22 00:34:00;;;;;;;;;;;19.30;93.80;;;;;;5135203;27;19956;-42
2022/10/22 00:36:26;;;;;;;;;;;19.30;93.80;;;;;;5135215;27;19911;-43
2022/10/22 00:38:51;;;;;;;;;;;19.20;93.80;;;;;;5134801;27;19907;-42
2022/10/22 00:41:17;;;;;;;;;;;19.30;93.90;;;;;;5134904;27;19915;-44
2022/10/22 00:43:57;;;;;;;;;;;19.30;93.90;;;;;;5135175;27;20300;-42
2022/10/22 00:46:22;;;;;;;;;;;19.30;93.90;;;;;;5134769;27;19908;-44
2022/10/22 00:48:48;;;;;;;;;;;19.30;93.80;;;;;;5134747;28;20281;-47
2022/10/22 00:51:14;;;;;;;;;;;19.30;93.90;;;;;;5134942;28;19908;-42
2022/10/22 00:53:42;;;;;;;;;;;19.30;93.90;;;;;;5133512;28;19907;-45
2022/10/22 00:56:07;;;;;;;;;;;19.30;93.90;;;;;;5116580;28;20369;-46
2022/10/22 00:58:35;;;;;;;;;;;19.30;93.90;;;;;;5134975;28;19914;-43
2022/10/22 01:01:00;;;;;;;;;;;19.30;93.90;;;;;;5134596;28;20049;-45
2022/10/22 01:03:26;;;;;;;;;;;19.30;93.90;;;;;;5134892;28;19947;-46
2022/10/22 01:05:54;;;;;;;;;;;19.30;93.90;;;;;;5134608;28;19981;-43
2022/10/22 01:08:26;;;;;;;;;;;19.20;93.80;;;;;;5135052;28;19972;-45
2022/10/22 01:11:03;;;;;;;;;;;19.30;93.90;;;;;;5134491;28;19956;-44
2022/10/22 01:13:38;;;;;;;;;;;19.20;93.80;;;;;;5134806;28;20338;-46
2022/10/22 01:16:14;;;;;;;;;;;19.30;93.80;;;;;;5134795;28;20299;-45
2022/10/22 01:18:58;;;;;;;;;;;19.30;93.80;;;;;;5134494;28;19939;-43
2022/10/22 01:21:30;;;;;;;;;;;19.30;93.80;;;;;;5134609;28;19922;-44
2022/10/22 01:23:58;;;;;;;;;;;19.30;93.80;;;;;;5134747;28;20369;-42
2022/10/22 01:26:24;;;;;;;;;;;19.20;93.80;;;;;;5134467;28;19907;-43
2022/10/22 01:29:08;;;;;;;;;;;19.30;93.80;;;;;;5134398;28;20384;-43
2022/10/22 01:31:45;;;;;;;;;;;19.30;93.80;;;;;;5116215;28;19908;-44
2022/10/22 01:34:13;;;;;;;;;;;19.20;93.80;;;;;;5134407;28;19907;-44
2022/10/22 01:36:38;;;;;;;;;;;19.30;93.80;;;;;;5134685;28;19907;-43
2022/10/22 01:39:05;;;;;;;;;;;19.30;93.80;;;;;;5134553;28;19914;-43
2022/10/22 01:41:30;;;;;;;;;;;19.20;93.80;;;;;;5134655;28;19911;-42
2022/10/22 01:43:56;;;;;;;;;;;19.30;93.90;;;;;;5134597;28;19911;-43
2022/10/22 01:46:24;;;;;;;;;;;19.20;93.80;;;;;;5134340;28;19908;-43
2022/10/22 01:49:19;;;;;;;;;;;19.30;93.80;;;;;;5134273;28;19914;-44
2022/10/22 01:51:47;;;;;;;;;;;19.20;93.80;;;;;;5116498;28;19939;-42
2022/10/22 01:54:18;;;;;;;;;;;19.30;93.80;;;;;;5135681;27;20282;-43
2022/10/22 01:57:04;;;;;;;;;;;19.30;93.80;;;;;;5137992;27;19908;-43
2022/10/22 01:59:36;;;;;;;;;;;19.30;93.90;;;;;;5123673;27;20366;-42
2022/10/22 02:02:10;;;;;;;;;;;19.30;93.80;;;;;;5137858;27;19937;-42
2022/10/22 02:04:41;;;;;;;;;;;19.30;93.80;;;;;;5138084;27;19915;-43
2022/10/22 02:07:10;;;;;;;;;;;19.30;93.80;;;;;;5128761;27;19920;-43
2022/10/22 02:09:36;;;;;;;;;;;19.30;93.80;;;;;;5115781;28;20315;-43
2022/10/22 02:12:05;;;;;;;;;;;19.30;93.80;;;;;;5114721;28;20363;-43
2022/10/22 02:14:32;;;;;;;;;;;19.20;93.80;;;;;;5096831;28;20283;-43
2022/10/22 02:16:58;;;;;;;;;;;19.30;93.90;;;;;;5116210;28;19914;-43
2022/10/22 02:19:25;;;;;;;;;;;19.20;93.80;;;;;;5115601;28;20002;-43
2022/10/22 02:21:51;;;;;;;;;;;19.20;93.90;;;;;;5115691;28;19915;-46
2022/10/22 02:24:17;;;;;;;;;;;19.20;93.90;;;;;;5115469;28;20270;-43
2022/10/22 02:26:53;;;;;;;;;;;19.20;93.90;;;;;;5114955;28;19915;-43
2022/10/22 02:29:34;;;;;;;;;;;19.30;93.90;;;;;;5115798;28;19927;-44
2022/10/22 02:32:00;;;;;;;;;;;19.30;93.90;;;;;;5115212;28;20391;-42
2022/10/22 02:34:29;;;;;;;;;;;19.30;93.90;;;;;;5115983;28;19908;-42
2022/10/22 02:36:55;;;;;;;;;;;19.30;93.80;;;;;;5115494;28;19923;-42
2022/10/22 02:39:21;;;;;;;;;;;19.30;93.90;;;;;;5115208;28;20308;-47
2022/10/22 02:41:47;;;;;;;;;;;19.30;93.90;;;;;;5115459;28;20060;-44
2022/10/22 02:44:13;;;;;;;;;;;19.30;93.90;;;;;;5113444;28;20338;-42
2022/10/22 02:46:39;;;;;;;;;;;19.20;93.80;;;;;;5115095;28;19908;-44
2022/10/22 02:49:04;;;;;;;;;;;19.20;93.90;;;;;;5115142;28;20358;-44
2022/10/22 02:51:30;;;;;;;;;;;19.30;93.90;;;;;;5115145;28;20274;-42
2022/10/22 02:53:55;;;;;;;;;;;19.20;93.90;;;;;;5114995;28;19908;-43
2022/10/22 02:56:21;;;;;;;;;;;19.20;93.90;;;;;;5114816;28;19920;-44
2022/10/22 02:58:46;;;;;;;;;;;19.20;93.90;;;;;;5114828;28;19908;-46
2022/10/22 03:01:12;;;;;;;;;;;19.20;93.90;;;;;;5114743;28;19923;-49
2022/10/22 03:03:37;;;;;;;;;;;19.20;93.80;;;;;;5114915;28;19907;-46
2022/10/22 03:06:03;;;;;;;;;;;19.20;93.90;;;;;;5113700;28;19930;-43
2022/10/22 03:08:28;;;;;;;;;;;19.20;93.90;;;;;;5115101;28;19972;-42
2022/10/22 03:10:54;;;;;;;;;;;19.20;93.90;;;;;;5113706;28;19907;-44
2022/10/22 03:13:19;;;;;;;;;;;19.20;93.90;;;;;;5112775;28;19912;-44
2022/10/22 03:15:47;;;;;;;;;;;19.20;93.90;;;;;;5114191;28;19908;-42
2022/10/22 03:18:12;;;;;;;;;;;19.20;93.90;;;;;;5114830;28;20436;-45
2022/10/22 03:20:38;;;;;;;;;;;19.20;93.80;;;;;;5121803;27;20014;-43
2022/10/22 03:23:03;;;;;;;;;;;19.20;93.80;;;;;;5116059;27;19907;-46
2022/10/22 03:25:33;;;;;;;;;;;19.20;93.90;;;;;;5115824;28;20250;-45
2022/10/22 03:28:01;;;;;;;;;;;19.20;93.90;;;;;;5115014;28;19910;-43
2022/10/22 03:30:27;;;;;;;;;;;19.20;93.90;;;;;;5115656;28;19904;-45
2022/10/22 03:32:52;;;;;;;;;;;19.20;93.90;;;;;;5116958;27;20265;-46
2022/10/22 03:35:18;;;;;;;;;;;19.20;93.90;;;;;;5125381;27;19912;-42
2022/10/22 03:37:43;;;;;;;;;;;19.20;93.90;;;;;;5120710;27;19911;-43
2022/10/22 03:40:10;;;;;;;;;;;19.20;93.90;;;;;;5127912;27;20323;-43
2022/10/22 03:42:35;;;;;;;;;;;19.20;93.90;;;;;;5123178;27;19907;-46
2022/10/22 03:45:01;;;;;;;;;;;19.20;93.90;;;;;;5115551;28;19912;-43
2022/10/22 03:47:26;;;;;;;;;;;19.20;93.90;;;;;;5097271;28;19957;-45
2022/10/22 03:49:52;;;;;;;;;;;19.20;93.80;;;;;;5096952;28;19998;-43
2022/10/22 03:52:18;;;;;;;;;;;19.20;93.80;;;;;;5113136;28;19962;-47
2022/10/22 03:54:43;;;;;;;;;;;19.20;93.80;;;;;;5115464;28;19910;-45
2022/10/22 03:57:09;;;;;;;;;;;19.20;93.90;;;;;;5115839;27;20302;-45
2022/10/22 03:59:35;;;;;;;;;;;19.20;93.90;;;;;;5115177;27;19920;-44
2022/10/22 04:02:01;;;;;;;;;;;19.20;93.80;;;;;;5096362;28;19908;-42
2022/10/22 04:04:26;;;;;;;;;;;19.20;93.80;;;;;;5097004;28;20377;-45
2022/10/22 04:06:52;;;;;;;;;;;19.20;93.90;;;;;;5114814;28;19992;-42
2022/10/22 04:09:17;;;;;;;;;;;19.20;93.80;;;;;;5115177;28;19921;-43
2022/10/22 04:11:43;;;;;;;;;;;19.20;93.90;;;;;;5115121;28;20243;-43
2022/10/22 04:14:10;;;;;;;;;;;19.20;93.80;;;;;;5114930;28;19993;-42
2022/10/22 04:16:37;;;;;;;;;;;19.20;93.80;;;;;;5114432;28;19970;-45
2022/10/22 04:19:03;;;;;;;;;;;19.20;93.80;;;;;;5110683;28;19912;-43
2022/10/22 04:21:28;;;;;;;;;;;19.20;93.80;;;;;;5116018;27;19911;-42
2022/10/22 04:23:54;;;;;;;;;;;19.20;93.80;;;;;;5125845;27;19924;-42
2022/10/22 04:26:19;;;;;;;;;;;19.20;93.80;;;;;;5114810;28;19908;-42
2022/10/22 04:28:46;;;;;;;;;;;19.20;93.80;;;;;;5130091;27;19907;-44
2022/10/22 04:31:12;;;;;;;;;;;19.20;93.90;;;;;;5114790;27;19912;-46
2022/10/22 04:33:38;;;;;;;;;;;19.20;93.90;;;;;;5114222;28;19908;-44
2022/10/22 04:36:11;;;;;;;;;;;19.20;93.80;;;;;;5114319;28;20463;-46
2022/10/22 04:38:37;;;;;;;;;;;19.20;93.80;;;;;;5114278;28;19947;-42
2022/10/22 04:41:09;;;;;;;;;;;19.20;93.80;;;;;;5114200;28;19984;-43
2022/10/22 04:43:34;;;;;;;;;;;19.20;93.80;;;;;;5114258;28;19922;-42
2022/10/22 04:45:59;;;;;;;;;;;19.20;93.80;;;;;;5116431;28;19911;-44
2022/10/22 04:48:25;;;;;;;;;;;19.20;93.80;;;;;;5118397;28;19970;-44
2022/10/22 04:50:50;;;;;;;;;;;19.20;93.80;;;;;;5113340;28;20005;-47
2022/10/22 04:53:16;;;;;;;;;;;19.20;93.80;;;;;;5113401;28;19908;-52
2022/10/22 04:55:41;;;;;;;;;;;19.20;93.80;;;;;;5112667;28;19912;-47
2022/10/22 04:58:07;;;;;;;;;;;19.20;93.80;;;;;;5112947;28;19914;-45
2022/10/22 05:00:32;;;;;;;;;;;19.20;93.80;;;;;;5112445;28;19916;-44
2022/10/22 05:02:58;;;;;;;;;;;19.20;93.80;;;;;;5112521;28;19912;-42
2022/10/22 05:05:23;;;;;;;;;;;19.20;93.80;;;;;;5112514;28;19908;-49
2022/10/22 05:07:49;;;;;;;;;;;19.20;93.90;;;;;;5112831;28;20281;-42
2022/10/22 05:10:15;;;;;;;;;;;19.20;94.00;;;;;;5112411;28;20354;-46
2022/10/22 05:12:40;;;;;;;;;;;19.20;94.00;;;;;;5113055;28;19947;-43
2022/10/22 05:15:06;;;;;;;;;;;19.20;94.00;;;;;;5114228;28;19907;-46
2022/10/22 05:17:34;;;;;;;;;;;19.20;94.00;;;;;;5115162;28;20365;-44
2022/10/22 05:19:59;;;;;;;;;;;19.20;94.00;;;;;;5125441;28;19927;-42
2022/10/22 05:22:25;;;;;;;;;;;19.20;94.10;;;;;;5114140;28;20278;-42
2022/10/22 05:24:50;;;;;;;;;;;19.20;94.00;;;;;;5095593;28;19907;-43
2022/10/22 05:27:16;;;;;;;;;;;19.20;94.00;;;;;;5114121;28;19915;-42
2022/10/22 05:29:41;;;;;;;;;;;19.20;94.00;;;;;;5116628;28;19912;-43
2022/10/22 05:32:07;;;;;;;;;;;19.20;94.10;;;;;;5118414;28;20308;-44
2022/10/22 05:34:32;;;;;;;;;;;19.20;94.10;;;;;;5117664;28;19986;-42
2022/10/22 05:36:57;;;;;;;;;;;19.20;94.20;;;;;;5117923;28;19908;-43
2022/10/22 05:39:23;;;;;;;;;;;19.20;94.20;;;;;;5117855;28;20354;-42
2022/10/22 05:41:48;;;;;;;;;;;19.20;94.20;;;;;;5117822;28;20001;-42
2022/10/22 05:44:14;;;;;;;;;;;19.20;94.10;;;;;;5117846;28;19915;-42
2022/10/22 05:46:39;;;;;;;;;;;19.20;94.10;;;;;;5117518;28;19908;-44
2022/10/22 05:49:05;;;;;;;;;;;19.20;94.10;;;;;;5117338;28;20282;-45
2022/10/22 05:51:32;;;;;;;;;;;19.20;94.10;;;;;;5118021;28;19978;-43
2022/10/22 05:54:00;;;;;;;;;;;19.20;94.10;;;;;;5121938;27;19912;-44
2022/10/22 05:56:26;;;;;;;;;;;19.20;94.10;;;;;;5097089;28;19965;-44
2022/10/22 05:58:51;;;;;;;;;;;19.20;94.20;;;;;;5096699;28;20463;-43
2022/10/22 06:01:18;;;;;;;;;;;19.20;94.20;;;;;;5096977;28;20033;-43
2022/10/22 06:03:44;;;;;;;;;;;19.20;94.30;;;;;;5096809;28;20098;-43
2022/10/22 06:06:20;;;;;;;;;;;19.20;94.30;;;;;;5096423;28;20354;-44
2022/10/22 06:08:49;;;;;;;;;;;19.20;94.30;;;;;;5096571;28;20347;-44
2022/10/22 06:11:16;;;;;;;;;;;19.20;94.40;;;;;;5110203;27;20010;-47
2022/10/22 06:13:42;;;;;;;;;;;19.20;94.40;;;;;;5117030;28;20389;-45
2022/10/22 06:16:08;;;;;;;;;;;19.20;94.40;;;;;;5122287;27;20369;-44
2022/10/22 06:18:33;;;;;;;;;;;19.30;94.50;;;;;;5128248;27;19912;-45
2022/10/22 06:21:03;;;;;;;;;;;19.20;94.50;;;;;;5137212;27;19922;-45
2022/10/22 06:23:28;;;;;;;;;;;19.30;94.60;;;;;;5098797;28;19951;-44
2022/10/22 06:25:57;;;;;;;;;;;19.30;94.70;;;;;;5113876;27;19955;-44
2022/10/22 06:28:23;;;;;;;;;;;19.30;94.70;;;;;;5124485;27;20007;-45
2022/10/22 06:30:48;;;;;;;;;;;19.30;94.70;;;;;;5116480;28;20353;-44
2022/10/22 06:33:13;;;;;;;;;;;19.20;94.60;;;;;;5116339;28;19933;-44
2022/10/22 06:35:39;;;;;;;;;;;19.20;94.60;;;;;;5130469;27;19911;-43
2022/10/22 06:38:05;;;;;;;;;;;19.20;94.60;;;;;;5137494;27;19954;-46
2022/10/22 06:40:31;;;;;;;;;;;19.20;94.50;;;;;;5136586;27;19926;-43
2022/10/22 06:43:00;;;;;;;;;;;19.20;94.50;;;;;;5135975;27;19907;-43
2022/10/22 06:45:25;;;;;;;;;;;19.20;94.40;;;;;;5116192;28;19908;-44
2022/10/22 06:47:52;;;;;;;;;;;19.20;94.40;;;;;;5115839;28;19919;-45
2022/10/22 06:50:17;;;;;;;;;;;19.20;94.30;;;;;;5115173;28;19988;-45
2022/10/22 06:52:43;;;;;;;;;;;19.20;94.30;;;;;;5116733;27;19986;-44
2022/10/22 06:55:09;;;;;;;;;;;19.20;94.30;;;;;;5114658;27;19988;-45
2022/10/22 06:57:34;;;;;;;;;;;19.20;94.30;;;;;;5119347;27;19912;-46
2022/10/22 06:59:59;;;;;;;;;;;19.20;94.20;;;;;;5114029;28;20033;-44
2022/10/22 07:02:25;;;;;;;;;;;19.20;94.20;;;;;;5114914;28;20228;-45
2022/10/22 07:04:50;;;;;;;;;;;19.20;94.10;;;;;;5114856;28;19911;-44
2022/10/22 07:07:16;;;;;;;;;;;19.20;94.10;;;;;;5112903;27;19947;-45
2022/10/22 07:09:44;;;;;;;;;;;19.20;94.10;;;;;;5097613;28;20016;-45
2022/10/22 07:12:10;;;;;;;;;;;19.20;94.10;;;;;;5113719;28;19918;-45
2022/10/22 07:14:35;;;;;;;;;;;19.20;94.10;;;;;;5114967;28;20002;-48
2022/10/22 07:17:01;;;;;;;;;;;19.20;94.00;;;;;;5113343;28;19961;-46
2022/10/22 07:19:26;;;;;;;;;;;19.20;94.00;;;;;;5112990;28;19924;-49
2022/10/22 07:21:52;;;;;;;;;;;19.20;94.00;;;;;;5114316;28;20322;-45
2022/10/22 07:24:17;;;;;;;;;;;19.20;94.00;;;;;;5113309;28;20289;-46
2022/10/22 07:26:43;;;;;;;;;;;19.20;94.00;;;;;;5115784;28;19999;-45
2022/10/22 07:29:08;;;;;;;;;;;19.20;94.00;;;;;;5112405;28;19916;-44
2022/10/22 07:31:34;;;;;;;;;;;19.20;94.00;;;;;;5112047;28;19912;-48
2022/10/22 07:33:59;;;;;;;;;;;19.20;93.90;;;;;;5114071;28;19911;-47
2022/10/22 07:36:25;;;;;;;;;;;19.20;93.90;;;;;;5110690;28;20347;-46
2022/10/22 07:38:55;;;;;;;;;;;19.20;93.90;;;;;;5113535;28;19919;-46
2022/10/22 07:41:22;;;;;;;;;;;19.20;93.90;;;;;;5113043;28;19969;-43
2022/10/22 07:43:48;;;;;;;;;;;19.20;93.90;;;;;;5115241;28;19911;-44
2022/10/22 07:46:13;;;;;;;;;;;19.20;94.00;;;;;;5091723;28;19911;-51
2022/10/22 07:48:39;;;;;;;;;;;19.20;94.00;;;;;;5115077;28;19961;-46
2022/10/22 07:51:04;;;;;;;;;;;19.20;94.00;;;;;;5114595;28;19907;-46
2022/10/22 07:53:30;;;;;;;;;;;19.20;94.00;;;;;;5114495;28;19912;-45
2022/10/22 07:55:55;;;;;;;;;;;19.20;94.00;;;;;;5115228;28;19915;-47
2022/10/22 07:58:21;;;;;;;;;;;19.20;94.00;;;;;;5115386;28;20395;-46
2022/10/22 08:00:48;;;;;;;;;;;19.20;94.00;;;;;;5112058;28;19920;-51
2022/10/22 08:03:15;;;;;;;;;;;19.20;94.00;;;;;;5114605;28;19908;-43
2022/10/22 08:05:42;;;;;;;;;;;19.20;94.00;;;;;;5113021;28;19964;-45
2022/10/22 08:08:08;;;;;;;;;;;19.20;94.00;;;;;;5113223;27;20338;-47
2022/10/22 08:10:34;;;;;;;;;;;19.20;94.00;;;;;;5114771;28;19908;-44
2022/10/22 08:12:59;;;;;;;;;;;19.20;94.00;;;;;;5095881;28;20377;-45
2022/10/22 08:15:26;;;;;;;;;;;19.20;94.00;;;;;;5113097;27;19911;-46
2022/10/22 08:17:51;;;;;;;;;;;19.20;94.00;;;;;;5096708;28;19912;-47
2022/10/22 08:20:17;;;;;;;;;;;19.20;94.10;;;;;;5115040;28;19942;-43
2022/10/22 08:22:43;;;;;;;;;;;19.20;94.10;;;;;;5093991;28;20418;-46
2022/10/22 08:25:08;;;;;;;;;;;19.20;94.20;;;;;;5114006;28;19976;-46
2022/10/22 08:27:34;;;;;;;;;;;19.20;94.20;;;;;;5113084;28;19954;-50
2022/10/22 08:30:00;;;;;;;;;;;19.20;94.20;;;;;;5111284;28;19957;-45
2022/10/22 08:32:25;;;;;;;;;;;19.20;94.20;;;;;;5114724;28;19908;-44
2022/10/22 08:34:51;;;;;;;;;;;19.20;94.20;;;;;;5112543;28;19930;-43
2022/10/22 08:37:16;;;;;;;;;;;19.20;94.10;;;;;;5114963;27;19912;-44
2022/10/22 08:39:42;;;;;;;;;;;19.20;94.10;;;;;;5114251;28;19916;-43
2022/10/22 08:42:26;;;;;;;;;;;19.20;94.10;;;;;;5112451;27;20298;-46
2022/10/22 08:44:51;;;;;;;;;;;19.20;94.00;;;;;;5112515;28;19915;-52
2022/10/22 08:47:19;;;;;;;;;;;19.20;94.00;;;;;;5112075;28;19915;-46
2022/10/22 08:49:45;;;;;;;;;;;19.20;94.10;;;;;;5111294;28;19912;-44
2022/10/22 08:52:13;;;;;;;;;;;19.20;94.10;;;;;;5111354;28;20328;-46
2022/10/22 08:54:58;;;;;;;;;;;19.20;94.10;;;;;;5112163;28;19933;-45
2022/10/22 08:57:24;;;;;;;;;;;19.20;94.10;;;;;;5104039;28;20004;-44
2022/10/22 09:00:12;;;;;;;;;;;19.20;94.10;;;;;;5111162;28;19959;-45
2022/10/22 09:02:44;;;;;;;;;;;19.20;94.00;;;;;;5102369;28;19919;-45
2022/10/22 09:05:12;;;;;;;;;;;19.20;94.00;;;;;;5097159;28;19919;-43
2022/10/22 09:07:40;;;;;;;;;;;19.20;94.00;;;;;;5114078;28;20362;-46
2022/10/22 09:10:08;;;;;;;;;;;19.20;94.10;;;;;;5116001;28;19911;-42
2022/10/22 09:12:33;;;;;;;;;;;19.20;94.10;;;;;;5114386;28;19923;-44
2022/10/22 09:14:59;;;;;;;;;;;19.20;94.10;;;;;;5113116;28;19912;-44
2022/10/22 09:17:39;;;;;;;;;;;19.20;94.10;;;;;;5117523;28;19915;-44
2022/10/22 09:20:17;;;;;;;;;;;19.20;94.10;;;;;;5117951;27;20444;-43
2022/10/22 09:22:51;;;;;;;;;;;19.20;94.10;;;;;;5120882;27;20029;-45
2022/10/22 09:25:21;;;;;;;;;;;19.20;94.30;;;;;;5129816;27;20266;-43
2022/10/22 09:27:48;;;;;;;;;;;19.20;94.10;;;;;;5119284;27;19919;-44
2022/10/22 09:30:14;;;;;;;;;;;19.20;94.10;;;;;;5098089;28;19911;-48
2022/10/22 09:32:40;;;;;;;;;;;19.20;94.00;;;;;;5114901;28;19919;-48
2022/10/22 09:35:08;;;;;;;;;;;19.20;94.00;;;;;;5117783;28;19908;-44
2022/10/22 09:37:34;;;;;;;;;;;19.20;94.00;;;;;;5113207;28;19934;-46
2022/10/22 09:40:02;;;;;;;;;;;19.20;94.00;;;;;;5116333;28;20342;-44
2022/10/22 09:42:28;;;;;;;;;;;19.20;94.00;;;;;;5116081;28;19999;-45
2022/10/22 09:44:56;;;;;;;;;;;19.20;94.00;;;;;;5116840;28;20334;-46
2022/10/22 09:47:27;;;;;;;;;;;19.20;93.90;;;;;;5112465;27;20293;-42
2022/10/22 09:50:10;;;;;;;;;;;19.20;93.90;;;;;;5117428;28;19908;-46
2022/10/22 09:52:38;;;;;;;;;;;19.20;93.90;;;;;;5116653;28;20002;-44
2022/10/22 09:55:16;;;;;;;;;;;19.20;93.90;;;;;;5116965;28;19920;-43
2022/10/22 09:57:41;;;;;;;;;;;19.30;93.90;;;;;;5116745;28;20386;-43
2022/10/22 10:00:08;;;;;;;;;;;19.20;93.90;;;;;;5116954;28;19922;-43
2022/10/22 10:02:33;;;;;;;;;;;19.20;93.90;;;;;;5117243;28;19937;-47
2022/10/22 10:05:01;;;;;;;;;;;19.20;93.90;;;;;;5117031;28;20006;-44
2022/10/22 10:07:31;;;;;;;;;;;19.20;93.80;;;;;;5116714;28;20398;-44
2022/10/22 10:09:56;;;;;;;;;;;19.20;93.80;;;;;;5117010;28;19911;-44
2022/10/22 10:12:44;;;;;;;;;;;19.20;93.80;;;;;;5116743;28;20007;-43
2022/10/22 10:15:15;;;;;;;;;;;19.20;93.80;;;;;;5116905;28;19915;-43
2022/10/22 10:17:56;;;;;;;;;;;19.20;93.80;;;;;;5116993;28;19908;-43
2022/10/22 10:20:40;;;;;;;;;;;19.20;93.80;;;;;;5116875;28;19920;-47
2022/10/22 10:23:05;;;;;;;;;;;19.20;93.80;;;;;;5098632;28;19943;-45
2022/10/22 10:25:49;;;;;;;;;;;19.20;93.80;;;;;;5116544;28;19912;-48
2022/10/22 10:28:23;;;;;;;;;;;19.20;93.80;;;;;;5116767;28;19908;-47
2022/10/22 10:30:55;;;;;;;;;;;19.20;93.80;;;;;;5116435;28;19908;-44
2022/10/22 10:33:33;;;;;;;;;;;19.20;93.80;;;;;;5116765;28;20301;-44
2022/10/22 10:36:21;;;;;;;;;;;19.20;93.80;;;;;;5115907;28;19908;-45
2022/10/22 10:38:54;;;;;;;;;;;19.20;93.80;;;;;;5116311;28;19908;-43
2022/10/22 10:41:25;;;;;;;;;;;19.20;93.80;;;;;;5116317;28;20273;-44
2022/10/22 10:43:50;;;;;;;;;;;19.20;93.80;;;;;;5116609;28;19912;-43
2022/10/22 10:46:24;;;;;;;;;;;19.20;93.80;;;;;;5116351;28;19915;-44
2022/10/22 10:48:59;;;;;;;;;;;19.20;93.80;;;;;;5116063;28;19912;-47
2022/10/22 10:51:24;;;;;;;;;;;19.20;93.80;;;;;;5116427;28;19930;-44
2022/10/22 10:54:03;;;;;;;;;;;19.20;93.80;;;;;;5115943;28;20368;-45
2022/10/22 10:56:34;;;;;;;;;;;19.20;93.90;;;;;;5115952;28;19991;-45
2022/10/22 10:58:59;;;;;;;;;;;19.20;93.80;;;;;;5116038;28;20007;-47
2022/10/22 11:01:43;;;;;;;;;;;19.20;93.80;;;;;;5116071;28;20017;-46
2022/10/22 11:04:12;;;;;;;;;;;19.20;93.90;;;;;;5115672;28;20354;-45
2022/10/22 11:06:38;;;;;;;;;;;19.20;93.90;;;;;;5115448;28;19920;-44
2022/10/22 11:09:13;;;;;;;;;;;19.20;93.80;;;;;;5115790;28;19908;-43
2022/10/22 11:11:43;;;;;;;;;;;19.20;93.80;;;;;;5115839;28;19951;-45
2022/10/22 11:14:12;;;;;;;;;;;19.20;93.80;;;;;;5097217;28;19914;-46
2022/10/22 11:16:41;;;;;;;;;;;19.20;93.80;;;;;;5097263;28;20369;-48
2022/10/22 11:19:14;;;;;;;;;;;19.20;93.80;;;;;;5115530;28;19908;-43
2022/10/22 11:21:59;;;;;;;;;;;19.20;93.80;;;;;;5115186;28;19908;-44
2022/10/22 11:24:27;;;;;;;;;;;19.20;93.80;;;;;;5114994;28;19915;-44
2022/10/22 11:26:59;;;;;;;;;;;19.20;93.80;;;;;;5114599;28;20354;-43
2022/10/22 11:29:29;;;;;;;;;;;19.20;93.80;;;;;;5097236;28;19908;-46
2022/10/22 11:31:55;;;;;;;;;;;19.20;93.80;;;;;;5115176;28;19908;-44
2022/10/22 11:34:23;;;;;;;;;;;19.20;93.80;;;;;;5115062;28;19915;-44
2022/10/22 11:36:49;;;;;;;;;;;19.20;93.80;;;;;;5115394;28;19923;-45
2022/10/22 11:39:29;;;;;;;;;;;19.20;93.80;;;;;;5115287;28;19908;-44
2022/10/22 11:41:56;;;;;;;;;;;19.20;93.80;;;;;;5115258;28;19908;-43
2022/10/22 11:44:24;;;;;;;;;;;19.20;93.80;;;;;;5114989;28;20383;-48
2022/10/22 11:46:55;;;;;;;;;;;19.20;93.80;;;;;;5115011;28;20313;-44
2022/10/22 11:49:22;;;;;;;;;;;19.20;93.80;;;;;;5114993;28;19908;-49
2022/10/22 11:51:48;;;;;;;;;;;19.20;93.80;;;;;;5115155;28;19907;-45
2022/10/22 11:54:29;;;;;;;;;;;19.30;93.80;;;;;;5114846;28;19908;-46
2022/10/22 11:57:15;;;;;;;;;;;19.20;93.80;;;;;;5114974;28;19915;-44
2022/10/22 11:59:49;;;;;;;;;;;19.20;93.80;;;;;;5114696;28;19964;-44
2022/10/22 12:02:27;;;;;;;;;;;19.20;93.80;;;;;;5114760;28;19907;-44
2022/10/22 12:05:15;;;;;;;;;;;19.20;93.80;;;;;;5115025;28;19957;-45
2022/10/22 12:07:46;;;;;;;;;;;19.20;93.80;;;;;;5113901;28;19924;-45
2022/10/22 12:10:17;;;;;;;;;;;19.20;93.80;;;;;;5114538;28;19918;-46
2022/10/22 12:12:42;;;;;;;;;;;19.20;93.80;;;;;;5096350;28;20297;-46
2022/10/22 12:15:25;;;;;;;;;;;19.20;93.80;;;;;;5115047;28;19949;-45
2022/10/22 12:17:57;;;;;;;;;;;19.20;93.70;;;;;;5114589;28;19908;-47
2022/10/22 12:20:24;;;;;;;;;;;19.20;93.70;;;;;;5114405;28;19915;-44
2022/10/22 12:22:51;;;;;;;;;;;19.20;93.70;;;;;;5114271;28;19908;-45
2022/10/22 12:25:29;;;;;;;;;;;19.20;93.70;;;;;;5114234;28;19908;-44
2022/10/22 12:27:56;;;;;;;;;;;19.20;93.70;;;;;;5114382;28;19961;-43
2022/10/22 12:30:26;;;;;;;;;;;19.20;93.70;;;;;;5114042;28;19962;-43
2022/10/22 12:33:01;;;;;;;;;;;19.20;93.70;;;;;;5114415;28;19919;-44
2022/10/22 12:35:28;;;;;;;;;;;19.20;93.70;;;;;;5114039;28;19907;-44
2022/10/22 12:37:55;;;;;;;;;;;19.20;93.70;;;;;;5113477;28;20267;-45
2022/10/22 12:40:25;;;;;;;;;;;19.20;93.70;;;;;;5113828;28;19923;-43
2022/10/22 12:43:19;;;;;;;;;;;19.20;93.70;;;;;;5114113;28;19908;-42
2022/10/22 12:45:46;;;;;;;;;;;19.20;93.70;;;;;;5096006;28;20247;-42
2022/10/22 12:48:17;;;;;;;;;;;19.20;93.70;;;;;;5113821;28;19984;-42
2022/10/22 12:50:44;;;;;;;;;;;19.20;93.70;;;;;;5114080;28;20045;-47
2022/10/22 12:53:30;;;;;;;;;;;19.20;93.70;;;;;;5113810;28;19915;-45
2022/10/22 12:55:58;;;;;;;;;;;19.20;93.70;;;;;;5099241;28;20354;-46
2022/10/22 12:58:32;;;;;;;;;;;19.20;93.70;;;;;;5113651;28;19908;-47
2022/10/22 13:01:00;;;;;;;;;;;19.20;93.70;;;;;;5114095;28;19915;-45
2022/10/22 13:03:28;;;;;;;;;;;19.20;93.70;;;;;;5113977;28;19907;-45
2022/10/22 13:05:54;;;;;;;;;;;19.20;93.70;;;;;;5113987;28;19911;-46
2022/10/22 13:08:20;;;;;;;;;;;19.20;93.70;;;;;;5114119;28;20011;-43
2022/10/22 13:10:50;;;;;;;;;;;19.20;93.70;;;;;;5113779;28;19957;-43
2022/10/22 13:13:34;;;;;;;;;;;19.20;93.60;;;;;;5113631;28;20359;-45
2022/10/22 13:16:20;;;;;;;;;;;19.20;93.60;;;;;;5113689;28;19915;-47
2022/10/22 13:18:46;;;;;;;;;;;19.20;93.60;;;;;;5113617;28;19933;-48
2022/10/22 13:21:22;;;;;;;;;;;19.20;93.60;;;;;;5113743;28;20026;-45
2022/10/22 13:23:55;;;;;;;;;;;19.20;93.60;;;;;;5113794;28;20027;-44
2022/10/22 13:26:21;;;;;;;;;;;19.20;93.90;;;;;;5095389;28;19907;-43
2022/10/22 13:28:51;;;;;;;;;;;19.20;93.60;;;;;;5113785;28;20413;-46
2022/10/22 13:31:18;;;;;;;;;;;19.20;93.60;;;;;;5114029;28;19994;-47
2022/10/22 13:33:45;;;;;;;;;;;19.20;93.60;;;;;;5113560;28;19908;-45
2022/10/22 13:36:15;;;;;;;;;;;19.20;93.60;;;;;;5113619;28;19908;-45
2022/10/22 13:38:41;;;;;;;;;;;19.20;93.60;;;;;;5113563;28;19908;-45
2022/10/22 13:41:23;;;;;;;;;;;19.20;93.60;;;;;;5113533;28;19999;-43
2022/10/22 13:43:48;;;;;;;;;;;19.20;93.60;;;;;;5113126;28;20316;-43
2022/10/22 13:46:14;;;;;;;;;;;19.20;93.60;;;;;;5113290;28;19908;-48
2022/10/22 13:48:39;;;;;;;;;;;19.20;93.60;;;;;;5095669;28;19908;-45
2022/10/22 13:51:12;;;;;;;;;;;19.20;93.60;;;;;;5117225;28;19908;-50
2022/10/22 13:53:37;;;;;;;;;;;19.20;93.60;;;;;;5117375;28;19908;-46
2022/10/22 13:56:03;;;;;;;;;;;19.20;93.60;;;;;;5117504;28;19991;-47
2022/10/22 13:58:28;;;;;;;;;;;19.20;93.60;;;;;;5117524;28;19962;-46
2022/10/22 14:00:55;;;;;;;;;;;19.20;93.60;;;;;;5117345;28;20278;-45
2022/10/22 14:03:23;;;;;;;;;;;19.20;93.60;;;;;;5117448;28;19912;-47
2022/10/22 14:05:49;;;;;;;;;;;19.20;93.60;;;;;;5117696;28;19908;-47
2022/10/22 14:08:16;;;;;;;;;;;19.20;93.60;;;;;;5117675;28;19920;-45
2022/10/22 14:10:41;;;;;;;;;;;19.20;93.60;;;;;;5098999;28;19937;-46
2022/10/22 14:13:08;;;;;;;;;;;19.20;93.60;;;;;;5117118;28;19908;-45
2022/10/22 14:15:34;;;;;;;;;;;19.20;93.60;;;;;;5117222;28;19908;-44
2022/10/22 14:18:00;;;;;;;;;;;19.20;93.60;;;;;;5116987;28;19930;-46
2022/10/22 14:20:28;;;;;;;;;;;19.20;93.60;;;;;;5116742;28;19927;-43
2022/10/22 14:22:53;;;;;;;;;;;19.20;93.60;;;;;;5116757;28;19942;-46